Time;durP1;ratioP1;P1;durP2;ratioP2;P2;SDS_P1;SDS_P2;PMS_P1;PMS_P2;Temp;Humidity;BMP_temperature;BMP_pressure;BME280_temperature;BME280_humidity;BME280_pressure;Samples;Min_cycle;Max_cycle;Signal;HPM_P1;HPM_P2
2021/10/18 00:01:19;;;;;;;;;;;;;;;28.51;71.08;100958.13;4982408;27;66204;-35
2021/10/18 00:04:07;;;;;;;;;;;;;;;28.42;70.49;100948.56;4985183;27;69268;-35
2021/10/18 00:06:38;;;;;;;;;;;;;;;28.44;70.09;100951.03;5018210;27;66073;-35
2021/10/18 00:09:08;;;;;;;;;;;;;;;28.60;69.78;100976.84;4989251;27;69800;-35
2021/10/18 00:11:41;;;;;;;;;;;;;;;28.63;69.27;100977.28;4982270;27;65862;-35
2021/10/18 00:14:12;;;;;;;;;;;;;;;28.67;69.21;100977.72;4987135;27;70986;-35
2021/10/18 00:16:42;;;;;;;;;;;;;;;28.69;69.42;100976.44;4985406;27;65213;-35
2021/10/18 00:19:13;;;;;;;;;;;;;;;28.72;69.08;100980.63;4987655;27;69898;-35
2021/10/18 00:21:43;;;;;;;;;;;;;;;28.74;69.22;100986.66;4986446;27;65988;-36
2021/10/18 00:24:20;;;;;;;;;;;;;;;28.77;68.91;100986.25;4982210;27;68967;-35
2021/10/18 00:26:53;;;;;;;;;;;;;;;28.80;69.19;100982.31;4984249;27;67458;-35
2021/10/18 00:29:34;;;;;;;;;;;;;;;28.83;69.12;100998.91;4977886;28;70121;-35
2021/10/18 00:32:07;;;;;;;;;;;;;;;28.84;69.19;101003.31;4987094;27;65839;-35
2021/10/18 00:34:46;;;;;;;;;;;;;;;28.86;69.16;100998.53;4989877;27;68463;-35
2021/10/18 00:37:22;;;;;;;;;;;;;;;28.90;69.09;101004.34;4984421;27;65963;-35
2021/10/18 00:39:58;;;;;;;;;;;;;;;28.91;68.88;101006.84;4989433;27;70974;-35
2021/10/18 00:42:36;;;;;;;;;;;;;;;28.92;69.28;101008.53;4998997;27;65413;-36
2021/10/18 00:45:17;;;;;;;;;;;;;;;28.94;69.33;101006.44;4991862;27;70136;-34
2021/10/18 00:48:34;;;;;;;;;;;;;;;28.98;69.09;101022.25;4991462;27;66540;-34
2021/10/18 00:51:43;;;;;;;;;;;;;;;29.01;69.35;101021.84;4991330;27;70333;-34
2021/10/18 00:54:39;;;;;;;;;;;;;;;29.03;69.45;101014.34;4994274;27;66600;-35
2021/10/18 00:57:18;;;;;;;;;;;;;;;29.04;69.51;101022.28;4985228;27;69440;-35
2021/10/18 00:59:56;;;;;;;;;;;;;;;29.08;69.16;101022.69;4983511;27;66534;-35
2021/10/18 01:02:37;;;;;;;;;;;;;;;29.10;69.60;101016.06;4984554;27;69196;-35
2021/10/18 01:05:36;;;;;;;;;;;;;;;29.12;69.27;101034.78;4988421;27;66244;-34
2021/10/18 01:08:19;;;;;;;;;;;;;;;29.14;69.63;101033.53;4988286;27;70276;-36
2021/10/18 01:11:12;;;;;;;;;;;;;;;29.17;69.25;101037.69;4990450;27;66135;-35
2021/10/18 01:14:13;;;;;;;;;;;;;;;29.19;69.57;101032.91;4991828;27;70705;-35
2021/10/18 01:16:51;;;;;;;;;;;;;;;29.23;69.63;101036.03;5049611;27;66031;-36
2021/10/18 01:19:50;;;;;;;;;;;;;;;29.26;69.78;101035.63;5087314;27;69229;-35
2021/10/18 01:23:14;;;;;;;;;;;;;;;29.14;69.61;101019.16;5090731;27;66288;-36
2021/10/18 01:26:00;;;;;;;;;;;;;;;29.32;69.55;101049.13;5091891;27;69996;-35
2021/10/18 01:28:53;;;;;;;;;;;;;;;29.33;69.77;101048.09;5088055;27;65617;-35
2021/10/18 01:31:39;;;;;;;;;;;;;;;29.36;69.77;101047.69;5093318;27;70072;-35
2021/10/18 01:34:30;;;;;;;;;;;;;;;29.39;69.35;101058.09;5079047;27;65367;-35
2021/10/18 01:37:20;;;;;;;;;;;;;;;29.41;69.30;101055.16;5063852;27;69687;-35
2021/10/18 01:40:04;;;;;;;;;;;;;;;29.45;69.32;101060.97;5069111;27;65548;-34
2021/10/18 01:42:44;;;;;;;;;;;;;;;29.47;69.70;101064.31;5072416;27;69460;-35
2021/10/18 01:45:59;;;;;;;;;;;;;;;29.49;69.61;101062.25;5085079;27;65714;-34
2021/10/18 01:48:50;;;;;;;;;;;;;;;29.54;69.81;101067.88;5083458;27;68394;-36
2021/10/18 01:51:38;;;;;;;;;;;;;;;29.55;69.59;101067.66;5088511;27;65779;-35
2021/10/18 01:54:30;;;;;;;;;;;;;;;29.59;69.82;101068.09;5073224;27;70098;-35
2021/10/18 01:57:44;;;;;;;;;;;;;;;29.62;69.79;101073.09;5015692;27;67193;-36
2021/10/18 02:00:58;;;;;;;;;;;;;;;29.65;69.71;101067.28;4997309;27;69134;-35
2021/10/18 02:03:40;;;;;;;;;;;;;;;29.68;69.70;101074.97;5016582;27;66203;-35
2021/10/18 02:06:44;;;;;;;;;;;;;;;29.70;69.89;101072.91;5027975;27;70169;-35
2021/10/18 02:09:42;;;;;;;;;;;;;;;29.72;69.96;101073.50;4989416;27;66706;-34
2021/10/18 02:12:24;;;;;;;;;;;;;;;29.75;69.64;101067.69;4975878;27;70037;-35
2021/10/18 02:15:04;;;;;;;;;;;;;;;29.77;69.93;101065.59;4997599;27;66286;-35
2021/10/18 02:17:58;;;;;;;;;;;;;;;29.82;70.23;101067.69;5036359;27;69011;-35
2021/10/18 02:21:01;;;;;;;;;;;;;;;29.84;69.77;101069.16;5042910;27;66307;-35
2021/10/18 02:23:51;;;;;;;;;;;;;;;29.89;70.32;101073.91;5027517;27;69358;-35
2021/10/18 02:27:01;;;;;;;;;;;;;;;29.93;70.44;101074.34;4996552;27;66079;-34
2021/10/18 02:30:04;;;;;;;;;;;;;;;29.95;70.16;101066.84;5013221;27;70056;-34
2021/10/18 02:33:02;;;;;;;;;;;;;;;29.99;70.31;101073.50;5007355;27;67240;-36
2021/10/18 02:36:16;;;;;;;;;;;;;;;30.03;70.34;101072.03;5004508;27;70533;-36
2021/10/18 02:39:06;;;;;;;;;;;;;;;30.05;70.43;101068.09;4997354;27;66617;-36
2021/10/18 02:41:58;;;;;;;;;;;;;;;30.09;70.41;101063.09;5016015;27;70783;-36
2021/10/18 02:44:48;;;;;;;;;;;;;;;30.12;69.74;101065.38;5010935;27;66714;-36
2021/10/18 02:47:38;;;;;;;;;;;;;;;30.15;70.38;101064.97;4998065;27;69863;-36
2021/10/18 02:50:36;;;;;;;;;;;;;;;30.19;69.95;101060.78;5009071;27;66336;-36
2021/10/18 02:53:17;;;;;;;;;;;;;;;30.23;69.84;101053.13;5013304;27;70107;-36
2021/10/18 02:56:13;;;;;;;;;;;;;;;30.26;69.72;101050.81;5004753;27;66046;-35
2021/10/18 02:58:45;;;;;;;;;;;;;;;30.30;70.13;101053.09;5003471;27;70767;-35
2021/10/18 03:01:21;;;;;;;;;;;;;;;30.32;70.21;101051.00;5007414;27;66735;-35
2021/10/18 03:04:01;;;;;;;;;;;;;;;30.34;69.76;101051.59;5020747;27;70260;-36
2021/10/18 03:06:54;;;;;;;;;;;;;;;30.36;69.56;101042.22;5034551;27;66035;-36
2021/10/18 03:09:42;;;;;;;;;;;;;;;30.40;69.67;101038.06;4994427;27;70743;-36
2021/10/18 03:12:27;;;;;;;;;;;;;;;30.43;69.92;101043.06;4981010;28;66185;-33
2021/10/18 03:15:08;;;;;;;;;;;;;;;30.45;69.42;101040.13;5004824;27;69465;-35
2021/10/18 03:17:46;;;;;;;;;;;;;;;30.46;69.83;101041.81;4967759;28;65473;-35
2021/10/18 03:20:27;;;;;;;;;;;;;;;30.49;69.60;101041.38;4997582;27;69892;-36
2021/10/18 03:22:59;;;;;;;;;;;;;;;30.50;69.62;101043.84;5025940;27;66550;-35
2021/10/18 03:25:36;;;;;;;;;;;;;;;30.53;69.82;101036.34;5023699;27;69456;-35
2021/10/18 03:28:12;;;;;;;;;;;;;;;30.55;69.93;101034.28;4987766;28;66126;-36
2021/10/18 03:31:00;;;;;;;;;;;;;;;30.56;69.32;101036.75;5003720;27;70209;-35
2021/10/18 03:33:40;;;;;;;;;;;;;;;30.59;69.22;101036.34;4975941;27;65558;-36
2021/10/18 03:36:14;;;;;;;;;;;;;;;30.61;69.77;101033.41;4997042;27;70555;-35
2021/10/18 03:38:49;;;;;;;;;;;;;;;30.62;69.22;101026.94;5002348;27;67095;-35
2021/10/18 03:41:20;;;;;;;;;;;;;;;30.65;69.28;101023.81;5009535;27;69394;-36
2021/10/18 03:43:51;;;;;;;;;;;;;;;30.67;69.23;101027.13;4996273;27;65784;-36
2021/10/18 03:46:23;;;;;;;;;;;;;;;30.68;69.72;101013.38;5019741;27;70626;-36
2021/10/18 03:48:53;;;;;;;;;;;;;;;30.71;69.55;101010.25;5005277;27;65739;-35
2021/10/18 03:51:26;;;;;;;;;;;;;;;30.75;68.93;101012.50;4999898;27;70520;-35
2021/10/18 03:53:57;;;;;;;;;;;;;;;30.76;69.39;100998.78;4995328;27;66176;-35
2021/10/18 03:56:27;;;;;;;;;;;;;;;30.79;69.19;100997.50;4994184;27;70469;-35
2021/10/18 03:58:58;;;;;;;;;;;;;;;30.81;69.00;100993.53;5008114;27;65604;-35
2021/10/18 04:01:30;;;;;;;;;;;;;;;30.84;69.00;100997.69;5018199;27;70030;-35
2021/10/18 04:04:01;;;;;;;;;;;;;;;30.85;69.28;100988.53;5025765;27;66017;-35
2021/10/18 04:06:31;;;;;;;;;;;;;;;30.88;68.76;100988.09;5007044;27;70338;-35
2021/10/18 04:09:01;;;;;;;;;;;;;;;30.89;68.53;100982.44;4991697;27;65502;-35
2021/10/18 04:11:39;;;;;;;;;;;;;;;30.92;68.98;100983.88;5007181;27;69883;-35
2021/10/18 04:14:09;;;;;;;;;;;;;;;30.93;68.47;100978.28;5000819;27;65188;-34
2021/10/18 04:16:40;;;;;;;;;;;;;;;30.97;68.81;100972.41;5005382;27;70369;-34
2021/10/18 04:19:10;;;;;;;;;;;;;;;30.99;68.61;100962.19;4999912;27;65700;-35
2021/10/18 04:21:40;;;;;;;;;;;;;;;31.02;68.83;100959.03;5015257;27;69316;-35
2021/10/18 04:24:11;;;;;;;;;;;;;;;31.04;68.79;100956.94;4992930;27;66154;-35
2021/10/18 04:26:41;;;;;;;;;;;;;;;31.05;68.31;100956.72;5015023;27;69473;-35
2021/10/18 04:29:16;;;;;;;;;;;;;;;31.09;68.03;100952.53;5007637;27;66340;-35
2021/10/18 04:31:48;;;;;;;;;;;;;;;31.11;67.93;100949.59;4995700;27;70657;-35
2021/10/18 04:34:19;;;;;;;;;;;;;;;31.12;67.89;100948.53;5004640;27;66753;-35
2021/10/18 04:36:53;;;;;;;;;;;;;;;31.14;68.19;100949.97;5006035;27;70396;-35
2021/10/18 04:39:24;;;;;;;;;;;;;;;31.15;68.02;100954.34;4997727;27;66129;-35
2021/10/18 04:41:54;;;;;;;;;;;;;;;31.15;68.42;100938.09;4998749;27;70945;-36
2021/10/18 04:44:25;;;;;;;;;;;;;;;31.20;68.26;100944.72;5008051;27;65385;-36
2021/10/18 04:46:55;;;;;;;;;;;;;;;31.23;68.05;100938.84;5003354;27;69330;-36
2021/10/18 04:49:26;;;;;;;;;;;;;;;31.26;67.67;100931.13;5008376;27;65330;-36
2021/10/18 04:51:56;;;;;;;;;;;;;;;31.29;68.16;100927.16;4997766;27;69128;-36
2021/10/18 04:54:26;;;;;;;;;;;;;;;31.32;67.56;100932.13;4990689;27;65614;-36
2021/10/18 04:56:57;;;;;;;;;;;;;;;31.35;68.01;100931.69;5004910;27;69996;-36
2021/10/18 04:59:27;;;;;;;;;;;;;;;31.36;67.76;100922.50;4995627;27;66729;-36
2021/10/18 05:01:58;;;;;;;;;;;;;;;31.38;67.67;100915.00;5006952;27;70642;-36
2021/10/18 05:04:28;;;;;;;;;;;;;;;31.40;67.43;100912.91;4996309;27;66307;-36
2021/10/18 05:06:58;;;;;;;;;;;;;;;31.41;67.45;100914.56;5000028;27;69323;-37
2021/10/18 05:09:29;;;;;;;;;;;;;;;31.43;67.60;100912.44;4998072;27;68106;-36
2021/10/18 05:12:00;;;;;;;;;;;;;;;31.45;67.46;100910.31;5003106;27;70474;-36
2021/10/18 05:14:30;;;;;;;;;;;;;;;31.47;67.78;100908.22;5002024;27;65998;-36
2021/10/18 05:17:00;;;;;;;;;;;;;;;31.50;67.44;100901.53;5036384;27;70643;-35
2021/10/18 05:19:30;;;;;;;;;;;;;;;31.51;67.44;100893.19;5031656;27;66386;-35
2021/10/18 05:22:01;;;;;;;;;;;;;;;31.55;67.12;100893.56;5017099;27;70980;-35
2021/10/18 05:24:32;;;;;;;;;;;;;;;31.56;67.59;100874.34;4997913;27;66723;-35
2021/10/18 05:27:02;;;;;;;;;;;;;;;31.58;67.27;100877.66;4996166;27;69388;-35
2021/10/18 05:29:33;;;;;;;;;;;;;;;31.61;67.17;100876.38;5007401;27;67473;-36
2021/10/18 05:32:04;;;;;;;;;;;;;;;31.63;67.27;100873.47;5004609;27;69522;-36
2021/10/18 05:34:35;;;;;;;;;;;;;;;31.64;67.37;100869.69;5022393;27;66368;-35
2021/10/18 05:37:05;;;;;;;;;;;;;;;31.67;67.19;100858.38;4993293;27;70313;-36
2021/10/18 05:39:35;;;;;;;;;;;;;;;31.68;67.15;100860.88;4998166;27;66164;-36
2021/10/18 05:42:06;;;;;;;;;;;;;;;31.72;67.21;100861.25;4993179;27;69773;-34
2021/10/18 05:44:36;;;;;;;;;;;;;;;31.74;67.29;100857.25;5008410;27;66464;-35
2021/10/18 05:47:07;;;;;;;;;;;;;;;31.75;67.36;100852.66;4992714;27;70577;-35
2021/10/18 05:49:37;;;;;;;;;;;;;;;31.76;66.93;100841.59;5006862;27;66586;-35
2021/10/18 05:52:07;;;;;;;;;;;;;;;31.79;67.15;100834.88;4981819;27;70309;-35
2021/10/18 05:54:38;;;;;;;;;;;;;;;31.81;66.95;100838.19;4986263;27;67150;-34
2021/10/18 05:57:20;;;;;;;;;;;;;;;31.82;67.38;100824.41;4985459;27;70428;-35
2021/10/18 05:59:51;;;;;;;;;;;;;;;31.85;67.24;100825.00;4992258;27;65789;-35
2021/10/18 06:02:21;;;;;;;;;;;;;;;31.87;67.08;100820.97;4995515;27;70022;-35
2021/10/18 06:04:52;;;;;;;;;;;;;;;31.89;66.75;100818.06;4988909;27;66108;-35
2021/10/18 06:07:22;;;;;;;;;;;;;;;31.89;67.34;100813.47;4988020;27;70629;-36
2021/10/18 06:09:52;;;;;;;;;;;;;;;31.91;66.86;100816.81;4988260;27;66310;-36
2021/10/18 06:12:27;;;;;;;;;;;;;;;31.94;67.13;100810.91;4989522;27;70447;-36
2021/10/18 06:14:57;;;;;;;;;;;;;;;31.96;66.98;100803.38;4982666;27;66515;-36
2021/10/18 06:17:28;;;;;;;;;;;;;;;31.98;67.06;100803.16;5009998;27;70218;-36
2021/10/18 06:19:59;;;;;;;;;;;;;;;31.98;67.05;100801.28;4992619;27;66012;-35
2021/10/18 06:22:30;;;;;;;;;;;;;;;32.00;66.75;100793.72;4988871;27;70359;-35
2021/10/18 06:25:01;;;;;;;;;;;;;;;32.03;67.00;100787.00;4985731;27;66178;-36
2021/10/18 06:27:31;;;;;;;;;;;;;;;32.04;66.83;100786.78;4992764;27;69225;-36
2021/10/18 06:30:04;;;;;;;;;;;;;;;32.07;66.97;100781.94;4966123;28;66206;-36
2021/10/18 06:32:35;;;;;;;;;;;;;;;32.08;66.69;100772.75;4989961;27;69847;-35
2021/10/18 06:35:09;;;;;;;;;;;;;;;32.09;66.75;100768.97;4987096;27;65804;-36
2021/10/18 06:37:41;;;;;;;;;;;;;;;32.11;66.98;100775.00;5003330;27;69353;-35
2021/10/18 06:40:12;;;;;;;;;;;;;;;32.13;66.83;100767.47;4988006;27;66139;-36
2021/10/18 06:42:50;;;;;;;;;;;;;;;32.15;66.77;100762.63;5004066;27;70014;-36
2021/10/18 06:45:21;;;;;;;;;;;;;;;32.16;66.70;100758.84;4990225;28;67136;-36
2021/10/18 06:47:52;;;;;;;;;;;;;;;32.18;66.81;100762.16;4994270;27;70187;-36
2021/10/18 06:50:26;;;;;;;;;;;;;;;32.20;66.78;100750.00;4991190;27;65239;-36
2021/10/18 06:53:01;;;;;;;;;;;;;;;32.23;66.33;100748.72;4985350;27;70633;-35
2021/10/18 06:55:36;;;;;;;;;;;;;;;32.25;66.63;100752.03;4989932;27;65134;-36
2021/10/18 06:58:08;;;;;;;;;;;;;;;32.27;66.69;100736.34;4985833;27;70229;-35
2021/10/18 07:00:46;;;;;;;;;;;;;;;32.30;66.29;100743.19;4985930;27;66684;-36
2021/10/18 07:03:19;;;;;;;;;;;;;;;32.30;66.28;100727.72;4994020;27;69696;-36
2021/10/18 07:05:59;;;;;;;;;;;;;;;32.32;66.07;100733.75;4990791;27;64830;-36
2021/10/18 07:08:36;;;;;;;;;;;;;;;32.36;66.43;100731.41;4994056;27;71016;-36
2021/10/18 07:11:18;;;;;;;;;;;;;;;32.39;66.19;100722.78;4989283;27;66685;-36
2021/10/18 07:13:58;;;;;;;;;;;;;;;32.40;66.11;100719.84;4995582;27;69709;-35
2021/10/18 07:16:51;;;;;;;;;;;;;;;32.45;66.02;100721.84;4993455;27;65591;-35
2021/10/18 07:19:36;;;;;;;;;;;;;;;32.49;65.89;100721.19;4995072;27;70199;-35
2021/10/18 07:22:37;;;;;;;;;;;;;;;32.52;65.98;100713.63;5026930;27;66391;-34
2021/10/18 07:25:14;;;;;;;;;;;;;;;32.55;65.50;100715.88;4991125;27;70115;-34
2021/10/18 07:28:27;;;;;;;;;;;;;;;32.43;65.64;100689.50;5083992;27;44446;-36
2021/10/18 07:31:30;;;;;;;;;;;;;;;32.59;65.60;100714.31;5077658;27;70079;-36
2021/10/18 07:34:13;;;;;;;;;;;;;;;32.62;65.48;100705.69;5122047;27;65819;-37
2021/10/18 07:36:55;;;;;;;;;;;;;;;32.64;65.54;100709.00;5071175;27;70557;-36
2021/10/18 07:39:54;;;;;;;;;;;;;;;32.66;65.10;100707.72;5081838;27;66345;-36
2021/10/18 07:42:33;;;;;;;;;;;;;;;32.69;65.43;100712.69;5080350;27;70399;-36
2021/10/18 07:45:31;;;;;;;;;;;;;;;32.73;65.17;100702.16;5080340;27;65520;-36
2021/10/18 07:48:20;;;;;;;;;;;;;;;32.77;64.86;100700.63;5077318;27;70368;-36
2021/10/18 07:50:55;;;;;;;;;;;;;;;32.81;64.83;100701.78;5096121;27;66345;-36
2021/10/18 07:54:09;;;;;;;;;;;;;;;32.86;64.75;100692.94;5086495;27;70518;-36
2021/10/18 07:57:14;;;;;;;;;;;;;;;32.90;64.46;100700.38;5086258;27;66566;-36
2021/10/18 08:00:02;;;;;;;;;;;;;;;32.94;64.52;100701.53;5083069;27;69057;-36
2021/10/18 08:02:36;;;;;;;;;;;;;;;33.00;64.58;100705.22;5086211;27;65517;-36
2021/10/18 08:05:37;;;;;;;;;;;;;;;33.05;64.59;100701.81;5086060;27;69575;-36
2021/10/18 08:08:14;;;;;;;;;;;;;;;33.09;64.19;100697.53;5082177;27;66545;-37
2021/10/18 08:10:54;;;;;;;;;;;;;;;33.11;64.18;100695.41;5076055;27;70579;-36
2021/10/18 08:13:30;;;;;;;;;;;;;;;33.15;64.06;100696.56;5078391;27;66513;-36
2021/10/18 08:16:22;;;;;;;;;;;;;;;33.20;63.92;100699.38;5081490;27;69336;-36
2021/10/18 08:19:18;;;;;;;;;;;;;;;33.22;64.04;100697.25;5094034;27;65932;-36
2021/10/18 08:22:14;;;;;;;;;;;;;;;33.25;63.88;100707.66;5048207;27;69766;-36
2021/10/18 08:25:09;;;;;;;;;;;;;;;33.29;63.77;100713.44;5087596;27;66595;-36
2021/10/18 08:27:52;;;;;;;;;;;;;;;33.20;63.58;100696.66;5077751;27;69814;-36
2021/10/18 08:30:53;;;;;;;;;;;;;;;33.34;63.86;100713.53;5079983;27;66030;-36
2021/10/18 08:33:35;;;;;;;;;;;;;;;33.36;63.66;100709.50;5074792;27;68937;-40
2021/10/18 08:36:28;;;;;;;;;;;;;;;33.38;63.23;100718.25;5073981;27;67008;-36
2021/10/18 08:42:57;;;;;;;;;;;;;;;33.46;63.42;100727.09;5068128;27;67410;-36
2021/10/18 08:45:52;;;;;;;;;;;;;;;33.48;63.35;100727.69;5071290;27;70627;-36
2021/10/18 08:48:51;;;;;;;;;;;;;;;33.49;63.58;100724.72;5065651;27;66172;-36
2021/10/18 08:51:41;;;;;;;;;;;;;;;33.53;63.67;100715.03;5075969;27;69914;-36
2021/10/18 08:54:23;;;;;;;;;;;;;;;33.55;63.10;100722.97;5067580;27;66496;-36
2021/10/18 08:56:55;;;;;;;;;;;;;;;33.56;63.38;100725.44;5069920;27;69123;-36
2021/10/18 08:59:57;;;;;;;;;;;;;;;33.59;63.03;100718.69;5063510;27;65533;-36
2021/10/18 09:02:49;;;;;;;;;;;;;;;33.59;62.88;100730.38;5064497;27;70099;-36
2021/10/18 09:05:30;;;;;;;;;;;;;;;33.61;63.15;100727.44;5062003;27;65681;-36
2021/10/18 09:08:56;;;;;;;;;;;;;;;33.63;62.90;100736.19;5078499;27;70169;-36
2021/10/18 09:11:28;;;;;;;;;;;;;;;33.63;62.95;100729.88;5043288;27;65530;-36
2021/10/18 09:14:19;;;;;;;;;;;;;;;33.63;62.98;100725.31;5070211;27;69542;-36
2021/10/18 09:16:50;;;;;;;;;;;;;;;33.63;63.07;100725.31;5063762;27;66352;-36
2021/10/18 09:19:24;;;;;;;;;;;;;;;33.63;62.84;100725.31;5068334;27;69829;-36
2021/10/18 09:21:57;;;;;;;;;;;;;;;33.64;62.68;100731.56;5066500;27;66265;-36
2021/10/18 09:24:45;;;;;;;;;;;;;;;33.64;62.88;100737.00;5061052;27;69438;-36
2021/10/18 09:27:18;;;;;;;;;;;;;;;33.63;62.65;100741.63;5059759;27;67034;-35
2021/10/18 09:29:52;;;;;;;;;;;;;;;33.62;62.70;100739.13;5067208;27;70880;-35
2021/10/18 09:32:29;;;;;;;;;;;;;;;33.61;62.43;100743.75;5073621;27;66362;-35
2021/10/18 09:35:05;;;;;;;;;;;;;;;33.62;62.95;100745.38;5067850;27;69047;-36
2021/10/18 09:37:43;;;;;;;;;;;;;;;33.60;62.66;100744.81;5069225;27;65657;-36
2021/10/18 09:40:33;;;;;;;;;;;;;;;33.61;62.41;100748.38;5068031;27;70802;-36
2021/10/18 09:45:57;;;;;;;;;;;;;;;33.60;62.62;100755.72;5065383;27;70879;-35
2021/10/18 10:54:31;;;;;;;;;;;;;;;33.04;63.47;100819.69;5065039;27;70681;-36
2021/10/18 10:57:10;;;;;;;;;;;;;;;33.03;63.87;100818.06;5065966;27;66654;-36
2021/10/18 10:59:50;;;;;;;;;;;;;;;33.01;64.02;100820.19;5063276;27;70249;-37
2021/10/18 11:02:30;;;;;;;;;;;;;;;32.98;64.55;100826.06;5063181;27;66949;-36
2021/10/18 11:05:01;;;;;;;;;;;;;;;32.96;65.03;100823.59;5072414;27;68945;-36
2021/10/18 11:07:34;;;;;;;;;;;;;;;32.81;66.16;100844.94;5075580;27;65616;-36
2021/10/18 11:10:06;;;;;;;;;;;;;;;32.48;66.73;100844.44;5063374;27;69205;-36
2021/10/18 11:12:37;;;;;;;;;;;;;;;32.31;67.15;100859.66;5065476;27;65629;-37
2021/10/18 11:15:09;;;;;;;;;;;;;;;32.19;67.46;100858.81;5079560;27;69512;-36
2021/10/18 11:17:45;;;;;;;;;;;;;;;32.09;67.97;100858.53;5062758;27;65735;-36
2021/10/18 11:20:20;;;;;;;;;;;;;;;32.01;68.14;100865.94;5079255;27;69844;-36
2021/10/18 11:22:54;;;;;;;;;;;;;;;31.96;68.29;100871.22;5061576;27;66086;-36
2021/10/18 11:25:26;;;;;;;;;;;;;;;31.91;68.55;100872.91;5080145;27;70761;-36
2021/10/18 11:28:03;;;;;;;;;;;;;;;31.88;69.24;100882.34;5068047;27;65431;-36
2021/10/18 11:30:35;;;;;;;;;;;;;;;31.85;68.94;100888.22;5065160;27;70096;-35
2021/10/18 11:33:10;;;;;;;;;;;;;;;31.81;69.61;100887.81;5070041;27;66282;-36
2021/10/18 11:35:41;;;;;;;;;;;;;;;31.80;69.47;100907.06;5065558;27;69911;-37
2021/10/18 11:38:14;;;;;;;;;;;;;;;31.78;69.64;100903.72;5067511;27;66270;-36
2021/10/18 11:40:48;;;;;;;;;;;;;;;31.76;69.59;100911.25;5063256;27;71136;-36
2021/10/18 11:43:23;;;;;;;;;;;;;;;31.74;70.01;100924.25;5062512;27;66005;-36
2021/10/18 11:45:56;;;;;;;;;;;;;;;31.73;69.94;100923.41;5046453;28;70771;-35
2021/10/18 11:48:31;;;;;;;;;;;;;;;31.71;70.33;100927.41;5053838;28;67772;-36
2021/10/18 11:51:02;;;;;;;;;;;;;;;31.69;69.90;100935.75;5063132;27;68889;-36
2021/10/18 11:53:44;;;;;;;;;;;;;;;31.67;70.39;100945.16;5072736;27;65898;-35
2021/10/18 11:56:19;;;;;;;;;;;;;;;31.61;69.84;100953.13;5067097;27;69758;-37
2021/10/18 11:58:51;;;;;;;;;;;;;;;31.61;70.95;100955.84;5063803;27;67474;-36
2021/10/18 12:01:25;;;;;;;;;;;;;;;31.48;69.44;100958.72;5069266;27;69845;-36
2021/10/18 12:04:00;;;;;;;;;;;;;;;31.28;69.25;100958.00;5064558;27;65697;-37
2021/10/18 12:06:46;;;;;;;;;;;;;;;31.09;69.14;100966.09;5064157;27;70073;-35
2021/10/18 12:09:26;;;;;;;;;;;;;;;30.94;67.51;100973.69;5065418;27;64921;-36
2021/10/18 12:12:10;;;;;;;;;;;;;;;30.84;67.22;100976.03;5065408;27;68865;-37
2021/10/18 12:15:00;;;;;;;;;;;;;;;30.75;65.89;100980.00;5069077;27;66661;-36
2021/10/18 12:17:34;;;;;;;;;;;;;;;30.71;65.14;100990.47;5081956;27;69943;-36
2021/10/18 12:20:05;;;;;;;;;;;;;;;30.67;63.65;100998.19;5068969;27;66367;-35
2021/10/18 12:22:58;;;;;;;;;;;;;;;30.65;62.72;100994.88;5056826;27;69252;-36
2021/10/18 12:25:30;;;;;;;;;;;;;;;30.53;61.80;101004.69;5047144;27;66866;-36
2021/10/18 12:28:42;;;;;;;;;;;;;;;30.45;61.18;101000.38;5062449;27;70128;-37
2021/10/18 12:31:27;;;;;;;;;;;;;;;30.37;60.41;101005.16;5024299;28;65576;-36
2021/10/18 12:34:11;;;;;;;;;;;;;;;30.31;59.17;101011.44;5000133;28;70274;-36
2021/10/18 12:36:46;;;;;;;;;;;;;;;30.24;58.89;101017.72;5037769;28;66394;-35
2021/10/18 12:39:32;;;;;;;;;;;;;;;30.17;58.02;101027.72;5068907;27;70019;-36
2021/10/18 12:42:09;;;;;;;;;;;;;;;30.13;58.04;101042.69;5066904;27;66707;-35
2021/10/18 12:44:44;;;;;;;;;;;;;;;30.09;56.91;101043.31;5064570;27;69992;-35
2021/10/18 12:47:29;;;;;;;;;;;;;;;30.03;57.36;101056.66;5075403;27;65386;-37
2021/10/18 12:50:01;;;;;;;;;;;;;;;30.04;58.90;101052.06;5056108;27;68725;-38
2021/10/18 12:52:42;;;;;;;;;;;;;;;30.08;59.62;101066.00;5055995;27;67449;-36
2021/10/18 12:55:22;;;;;;;;;;;;;;;30.13;59.28;101067.03;5061956;27;70490;-36
2021/10/18 12:57:57;;;;;;;;;;;;;;;30.13;59.10;101068.91;5066119;27;66609;-35
2021/10/18 13:00:32;;;;;;;;;;;;;;;30.12;59.25;101073.50;5054683;27;70625;-35
2021/10/18 13:03:08;;;;;;;;;;;;;;;30.11;58.72;101077.22;5066662;27;66310;-37
2021/10/18 13:05:41;;;;;;;;;;;;;;;30.10;57.64;101075.56;5060030;27;69627;-36
2021/10/18 13:08:15;;;;;;;;;;;;;;;30.11;57.44;101088.06;5060785;27;67593;-35
2021/10/18 13:10:50;;;;;;;;;;;;;;;30.09;57.07;101095.56;5042156;28;69577;-34
2021/10/18 13:13:26;;;;;;;;;;;;;;;29.95;56.08;101078.50;5063577;27;66868;-34
2021/10/18 13:16:01;;;;;;;;;;;;;;;30.07;56.22;101105.75;5055989;27;69179;-35
2021/10/18 13:18:54;;;;;;;;;;;;;;;30.02;55.13;101116.38;5056087;27;66513;-35
2021/10/18 13:21:31;;;;;;;;;;;;;;;30.01;54.74;101120.13;5043873;28;69957;-37
2021/10/18 13:24:04;;;;;;;;;;;;;;;29.97;54.39;101113.44;5060354;27;67051;-35
2021/10/18 13:26:34;;;;;;;;;;;;;;;29.97;54.76;101125.09;5055761;27;70156;-35
2021/10/18 13:29:07;;;;;;;;;;;;;;;29.93;54.09;101129.28;5059653;27;67267;-35
2021/10/18 13:31:42;;;;;;;;;;;;;;;29.80;53.94;101102.22;5058729;27;69394;-35
2021/10/18 13:34:21;;;;;;;;;;;;;;;29.93;53.77;101139.25;5067067;27;67867;-35
2021/10/18 13:36:59;;;;;;;;;;;;;;;29.75;54.34;101105.53;5064174;27;70554;-34
2021/10/18 13:39:50;;;;;;;;;;;;;;;29.88;54.28;101125.53;5057385;27;66847;-35
2021/10/18 13:42:41;;;;;;;;;;;;;;;29.88;55.02;101133.66;5059619;27;70863;-35
2021/10/18 13:45:23;;;;;;;;;;;;;;;29.87;54.28;101149.03;5061323;27;65506;-35
2021/10/18 13:48:19;;;;;;;;;;;;;;;29.86;53.98;101143.81;5058874;27;69174;-35
2021/10/18 13:51:06;;;;;;;;;;;;;;;29.84;53.59;101144.06;5047904;27;66147;-35
2021/10/18 13:53:46;;;;;;;;;;;;;;;29.80;53.30;101146.31;5057200;27;69808;-35
2021/10/18 13:56:25;;;;;;;;;;;;;;;29.78;53.74;101153.81;5043418;28;68325;-35
2021/10/18 13:58:58;;;;;;;;;;;;;;;29.77;53.21;101149.44;5059319;27;70406;-34
2021/10/18 14:01:55;;;;;;;;;;;;;;;29.74;53.19;101151.72;5036051;27;65486;-35
2021/10/18 14:04:53;;;;;;;;;;;;;;;29.70;52.64;101150.47;5059815;27;69354;-35
2021/10/18 14:07:28;;;;;;;;;;;;;;;29.69;55.17;101149.63;5056080;27;66550;-37
2021/10/18 14:10:08;;;;;;;;;;;;;;;29.67;55.88;101145.47;5055521;27;70386;-35
2021/10/18 14:12:44;;;;;;;;;;;;;;;29.65;55.81;101153.78;5058201;27;66577;-35
2021/10/18 14:15:18;;;;;;;;;;;;;;;29.64;55.30;101157.53;5058502;27;69438;-35
2021/10/18 14:17:51;;;;;;;;;;;;;;;29.62;54.28;101159.59;5055036;27;65824;-35
2021/10/18 14:20:21;;;;;;;;;;;;;;;29.55;54.22;101166.84;5053466;27;70714;-35
2021/10/18 14:22:52;;;;;;;;;;;;;;;29.53;53.71;101167.06;5061542;27;67510;-35
2021/10/18 14:25:23;;;;;;;;;;;;;;;29.51;53.46;101173.69;5055922;27;70408;-35
2021/10/18 14:27:56;;;;;;;;;;;;;;;29.47;53.91;101162.44;5059661;27;65515;-35
2021/10/18 14:30:27;;;;;;;;;;;;;;;29.43;54.76;101177.41;5072217;27;70736;-35
2021/10/18 14:33:04;;;;;;;;;;;;;;;29.45;55.51;101177.19;5059156;27;66123;-34
2021/10/18 14:35:35;;;;;;;;;;;;;;;29.47;54.89;101177.84;5073700;27;67877;-36
2021/10/18 14:38:07;;;;;;;;;;;;;;;29.43;54.97;101176.59;5058558;27;65917;-35
2021/10/18 14:40:38;;;;;;;;;;;;;;;29.40;54.31;101173.25;5056908;28;70235;-34
2021/10/18 14:43:08;;;;;;;;;;;;;;;29.37;54.15;101184.47;5058601;27;66189;-34
2021/10/18 14:45:40;;;;;;;;;;;;;;;29.35;54.06;101178.44;5071411;27;70349;-34
2021/10/18 14:48:11;;;;;;;;;;;;;;;29.32;53.97;101181.53;5071645;27;65358;-34
2021/10/18 14:50:42;;;;;;;;;;;;;;;29.29;53.10;101176.53;5071499;27;69569;-33
2021/10/18 14:53:17;;;;;;;;;;;;;;;29.29;55.32;101176.53;5054908;28;66615;-36